sensor_id;sensor_type;location;lat;lon;timestamp;pressure;altitude;pressure_sealevel;temperature;humidity
64023;BME280;50264;52.088;5.296;2022-08-11T00:00:20;102284.0;;;20.45;59.47
64023;BME280;50264;52.088;5.296;2022-08-11T00:02:26;102287.0;;;20.29;59.95
64023;BME280;50264;52.088;5.296;2022-08-11T00:04:15;102287.0;;;20.25;60.31
64023;BME280;50264;52.088;5.296;2022-08-11T00:06:03;102286.0;;;20.37;60.01
64023;BME280;50264;52.088;5.296;2022-08-11T00:07:52;102285.0;;;20.25;60.19
64023;BME280;50264;52.088;5.296;2022-08-11T00:09:39;102285.0;;;20.29;60.37
64023;BME280;50264;52.088;5.296;2022-08-11T00:13:31;102287.0;;;20.3;60.13
64023;BME280;50264;52.088;5.296;2022-08-11T00:15:19;102280.0;;;20.12;60.39
64023;BME280;50264;52.088;5.296;2022-08-11T00:17:10;102281.0;;;20.0;60.88
64023;BME280;50264;52.088;5.296;2022-08-11T00:18:59;102281.0;;;19.96;61.2
64023;BME280;50264;52.088;5.296;2022-08-11T00:20:48;102284.0;;;19.95;61.15
64023;BME280;50264;52.088;5.296;2022-08-11T00:22:38;102283.0;;;19.93;61.04
64023;BME280;50264;52.088;5.296;2022-08-11T00:24:31;102286.0;;;19.86;61.17
64023;BME280;50264;52.088;5.296;2022-08-11T00:26:20;102289.0;;;19.87;60.99
64023;BME280;50264;52.088;5.296;2022-08-11T00:30:13;102289.0;;;19.84;61.47
64023;BME280;50264;52.088;5.296;2022-08-11T00:32:03;102290.0;;;19.91;61.13
64023;BME280;50264;52.088;5.296;2022-08-11T00:33:51;102291.0;;;19.81;61.31
64023;BME280;50264;52.088;5.296;2022-08-11T00:35:38;102288.0;;;19.7;61.66
64023;BME280;50264;52.088;5.296;2022-08-11T00:37:25;102289.0;;;19.75;61.42
64023;BME280;50264;52.088;5.296;2022-08-11T00:39:13;102287.0;;;19.71;61.32
64023;BME280;50264;52.088;5.296;2022-08-11T00:41:10;102286.0;;;19.68;61.91
64023;BME280;50264;52.088;5.296;2022-08-11T00:43:14;102284.0;;;19.68;61.6
64023;BME280;50264;52.088;5.296;2022-08-11T00:45:27;102287.0;;;19.56;61.79
64023;BME280;50264;52.088;5.296;2022-08-11T00:47:26;102291.0;;;19.54;61.8
64023;BME280;50264;52.088;5.296;2022-08-11T00:49:29;102292.0;;;19.54;61.7
64023;BME280;50264;52.088;5.296;2022-08-11T00:51:43;102291.0;;;19.5;62.05
64023;BME280;50264;52.088;5.296;2022-08-11T00:53:38;102294.0;;;19.53;62.28
64023;BME280;50264;52.088;5.296;2022-08-11T00:59:31;102292.0;;;19.43;62.55
64023;BME280;50264;52.088;5.296;2022-08-11T01:02:15;102305.0;;;19.34;62.63
64023;BME280;50264;52.088;5.296;2022-08-11T01:04:19;102293.0;;;19.39;62.16
64023;BME280;50264;52.088;5.296;2022-08-11T01:06:51;102291.0;;;19.41;61.82
64023;BME280;50264;52.088;5.296;2022-08-11T01:09:19;102291.0;;;19.41;61.87
64023;BME280;50264;52.088;5.296;2022-08-11T01:19:56;102293.0;;;19.04;62.88
64023;BME280;50264;52.088;5.296;2022-08-11T01:22:47;102288.0;;;19.0;63.34
64023;BME280;50264;52.088;5.296;2022-08-11T01:23:54;102288.0;;;19.02;63.58
64023;BME280;50264;52.088;5.296;2022-08-11T01:24:58;102288.0;;;19.02;63.58
64023;BME280;50264;52.088;5.296;2022-08-11T01:25:44;102286.0;;;18.98;63.47
64023;BME280;50264;52.088;5.296;2022-08-11T01:33:07;102280.0;;;18.72;64.66
64023;BME280;50264;52.088;5.296;2022-08-11T01:33:52;102282.0;;;18.68;64.52
64023;BME280;50264;52.088;5.296;2022-08-11T01:35:34;102282.0;;;18.66;64.72
64023;BME280;50264;52.088;5.296;2022-08-11T01:38:07;102281.0;;;18.59;65.0
64023;BME280;50264;52.088;5.296;2022-08-11T01:40:44;102280.0;;;18.64;64.8
64023;BME280;50264;52.088;5.296;2022-08-11T01:41:41;102280.0;;;18.64;64.8
64023;BME280;50264;52.088;5.296;2022-08-11T01:45:05;102281.0;;;18.62;64.91
64023;BME280;50264;52.088;5.296;2022-08-11T01:47:58;102283.0;;;18.56;65.09
64023;BME280;50264;52.088;5.296;2022-08-11T01:49:56;102285.0;;;18.7;64.56
64023;BME280;50264;52.088;5.296;2022-08-11T01:52:05;102285.0;;;18.61;64.85
64023;BME280;50264;52.088;5.296;2022-08-11T01:54:01;102280.0;;;18.62;65.09
64023;BME280;50264;52.088;5.296;2022-08-11T01:55:57;102282.0;;;18.57;65.19
64023;BME280;50264;52.088;5.296;2022-08-11T01:57:52;102280.0;;;18.61;65.1
64023;BME280;50264;52.088;5.296;2022-08-11T01:59:50;102280.0;;;18.46;65.33
64023;BME280;50264;52.088;5.296;2022-08-11T02:01:53;102281.0;;;18.47;65.69
64023;BME280;50264;52.088;5.296;2022-08-11T02:04:08;102285.0;;;18.47;65.49
64023;BME280;50264;52.088;5.296;2022-08-11T02:07:01;102281.0;;;18.39;65.91
64023;BME280;50264;52.088;5.296;2022-08-11T02:08:54;102281.0;;;18.41;65.77
64023;BME280;50264;52.088;5.296;2022-08-11T02:13:59;102277.0;;;18.31;66.3
64023;BME280;50264;52.088;5.296;2022-08-11T02:16:03;102277.0;;;18.34;66.55
64023;BME280;50264;52.088;5.296;2022-08-11T02:18:04;102280.0;;;18.31;66.45
64023;BME280;50264;52.088;5.296;2022-08-11T02:24:04;102280.0;;;18.29;66.49
64023;BME280;50264;52.088;5.296;2022-08-11T02:26:03;102277.0;;;18.34;66.42
64023;BME280;50264;52.088;5.296;2022-08-11T02:27:59;102274.0;;;18.28;66.41
64023;BME280;50264;52.088;5.296;2022-08-11T02:29:58;102274.0;;;18.25;66.55
64023;BME280;50264;52.088;5.296;2022-08-11T02:35:11;102273.0;;;18.29;67.11
64023;BME280;50264;52.088;5.296;2022-08-11T02:37:02;102273.0;;;18.21;66.72
64023;BME280;50264;52.088;5.296;2022-08-11T02:39:02;102275.0;;;18.12;67.22
64023;BME280;50264;52.088;5.296;2022-08-11T02:40:59;102272.0;;;18.02;67.55
64023;BME280;50264;52.088;5.296;2022-08-11T02:42:55;102276.0;;;17.97;67.48
64023;BME280;50264;52.088;5.296;2022-08-11T02:44:56;102280.0;;;17.91;67.8
64023;BME280;50264;52.088;5.296;2022-08-11T02:47:02;102276.0;;;17.88;67.87
64023;BME280;50264;52.088;5.296;2022-08-11T02:50:04;102273.0;;;17.93;67.98
64023;BME280;50264;52.088;5.296;2022-08-11T02:52:04;102275.0;;;18.2;67.55
64023;BME280;50264;52.088;5.296;2022-08-11T02:54:01;102272.0;;;18.23;67.03
64023;BME280;50264;52.088;5.296;2022-08-11T02:56:02;102275.0;;;18.22;66.75
64023;BME280;50264;52.088;5.296;2022-08-11T02:57:57;102269.0;;;18.06;67.27
64023;BME280;50264;52.088;5.296;2022-08-11T02:59:52;102265.0;;;17.93;67.74
64023;BME280;50264;52.088;5.296;2022-08-11T03:01:48;102268.0;;;17.89;67.83
64023;BME280;50264;52.088;5.296;2022-08-11T03:03:47;102263.0;;;17.89;67.75
64023;BME280;50264;52.088;5.296;2022-08-11T03:05:47;102263.0;;;17.86;67.95
64023;BME280;50264;52.088;5.296;2022-08-11T03:08:17;102268.0;;;17.78;68.17
64023;BME280;50264;52.088;5.296;2022-08-11T03:10:17;102264.0;;;17.75;68.41
64023;BME280;50264;52.088;5.296;2022-08-11T03:18:19;102258.0;;;17.68;69.08
64023;BME280;50264;52.088;5.296;2022-08-11T03:20:33;102259.0;;;17.62;69.37
64023;BME280;50264;52.088;5.296;2022-08-11T03:22:24;102259.0;;;17.63;69.48
64023;BME280;50264;52.088;5.296;2022-08-11T03:24:18;102256.0;;;17.55;70.05
64023;BME280;50264;52.088;5.296;2022-08-11T03:28:25;102256.0;;;17.57;70.02
64023;BME280;50264;52.088;5.296;2022-08-11T03:30:15;102256.0;;;17.7;69.86
64023;BME280;50264;52.088;5.296;2022-08-11T03:32:09;102255.0;;;17.68;69.66
64023;BME280;50264;52.088;5.296;2022-08-11T03:34:06;102255.0;;;17.64;69.64
64023;BME280;50264;52.088;5.296;2022-08-11T03:36:05;102256.0;;;17.66;69.49
64023;BME280;50264;52.088;5.296;2022-08-11T03:38:09;102257.0;;;17.61;69.41
64023;BME280;50264;52.088;5.296;2022-08-11T03:40:05;102255.0;;;17.61;69.24
64023;BME280;50264;52.088;5.296;2022-08-11T03:42:09;102255.0;;;17.57;69.08
64023;BME280;50264;52.088;5.296;2022-08-11T03:44:27;102260.0;;;17.66;69.73
64023;BME280;50264;52.088;5.296;2022-08-11T03:46:37;102259.0;;;17.89;69.28
64023;BME280;50264;52.088;5.296;2022-08-11T03:48:48;102255.0;;;17.84;69.31
64023;BME280;50264;52.088;5.296;2022-08-11T03:50:53;102253.0;;;17.77;69.61
64023;BME280;50264;52.088;5.296;2022-08-11T03:53:11;102252.0;;;17.8;69.7
64023;BME280;50264;52.088;5.296;2022-08-11T03:55:09;102255.0;;;17.84;69.69
64023;BME280;50264;52.088;5.296;2022-08-11T03:57:58;102257.0;;;17.88;69.47
64023;BME280;50264;52.088;5.296;2022-08-11T04:02:08;102250.0;;;17.86;69.95
64023;BME280;50264;52.088;5.296;2022-08-11T04:07:56;102250.0;;;17.75;69.92
64023;BME280;50264;52.088;5.296;2022-08-11T04:12:10;102250.0;;;17.61;69.7
64023;BME280;50264;52.088;5.296;2022-08-11T04:16:43;102252.0;;;17.63;70.24
64023;BME280;50264;52.088;5.296;2022-08-11T04:21:50;102247.0;;;17.75;70.22
64023;BME280;50264;52.088;5.296;2022-08-11T04:24:37;102249.0;;;17.64;70.97
64023;BME280;50264;52.088;5.296;2022-08-11T04:26:56;102243.0;;;17.61;70.94
64023;BME280;50264;52.088;5.296;2022-08-11T04:29:16;102241.0;;;17.72;70.99
64023;BME280;50264;52.088;5.296;2022-08-11T04:31:23;102244.0;;;17.68;70.97
64023;BME280;50264;52.088;5.296;2022-08-11T04:33:53;102243.0;;;17.71;71.22
64023;BME280;50264;52.088;5.296;2022-08-11T04:35:56;102243.0;;;17.78;71.34
64023;BME280;50264;52.088;5.296;2022-08-11T04:38:21;102242.0;;;17.88;71.31
64023;BME280;50264;52.088;5.296;2022-08-11T04:42:08;102241.0;;;17.86;71.55
64023;BME280;50264;52.088;5.296;2022-08-11T04:45:37;102240.0;;;17.81;71.05
64023;BME280;50264;52.088;5.296;2022-08-11T05:02:18;102241.0;;;17.78;71.88
64023;BME280;50264;52.088;5.296;2022-08-11T05:09:30;102242.0;;;17.84;71.77
64023;BME280;50264;52.088;5.296;2022-08-11T05:12:01;102239.0;;;17.78;71.88
64023;BME280;50264;52.088;5.296;2022-08-11T05:34:59;102246.0;;;18.13;71.22
64023;BME280;50264;52.088;5.296;2022-08-11T05:37:22;102246.0;;;18.11;71.37
64023;BME280;50264;52.088;5.296;2022-08-11T05:57:30;102259.0;;;18.77;69.19
64023;BME280;50264;52.088;5.296;2022-08-11T05:59:20;102261.0;;;18.72;69.05
64023;BME280;50264;52.088;5.296;2022-08-11T06:01:08;102259.0;;;18.79;69.08
64023;BME280;50264;52.088;5.296;2022-08-11T06:04:53;102258.0;;;18.95;68.31
64023;BME280;50264;52.088;5.296;2022-08-11T06:06:51;102260.0;;;19.02;68.0
64023;BME280;50264;52.088;5.296;2022-08-11T06:08:44;102257.0;;;18.98;68.44
64023;BME280;50264;52.088;5.296;2022-08-11T06:10:33;102261.0;;;19.02;68.03
64023;BME280;50264;52.088;5.296;2022-08-11T06:12:23;102261.0;;;19.09;67.97
64023;BME280;50264;52.088;5.296;2022-08-11T06:14:12;102262.0;;;19.27;66.94
64023;BME280;50264;52.088;5.296;2022-08-11T06:16:00;102263.0;;;19.41;66.66
64023;BME280;50264;52.088;5.296;2022-08-11T06:17:48;102265.0;;;19.41;66.45
64023;BME280;50264;52.088;5.296;2022-08-11T06:21:27;102269.0;;;19.45;66.44
64023;BME280;50264;52.088;5.296;2022-08-11T06:23:17;102266.0;;;19.45;66.47
64023;BME280;50264;52.088;5.296;2022-08-11T06:25:07;102265.0;;;19.52;65.91
64023;BME280;50264;52.088;5.296;2022-08-11T06:26:55;102266.0;;;19.61;65.47
64023;BME280;50264;52.088;5.296;2022-08-11T06:28:44;102265.0;;;19.75;64.8
64023;BME280;50264;52.088;5.296;2022-08-11T06:30:33;102263.0;;;19.84;64.44
64023;BME280;50264;52.088;5.296;2022-08-11T06:34:22;102262.0;;;19.87;64.19
64023;BME280;50264;52.088;5.296;2022-08-11T06:36:24;102260.0;;;19.89;64.48
64023;BME280;50264;52.088;5.296;2022-08-11T06:38:26;102264.0;;;20.04;63.53
64023;BME280;50264;52.088;5.296;2022-08-11T06:40:32;102262.0;;;20.21;62.67
64023;BME280;50264;52.088;5.296;2022-08-11T06:42:33;102255.0;;;20.32;62.37
64023;BME280;50264;52.088;5.296;2022-08-11T06:44:26;102255.0;;;20.43;60.96
64023;BME280;50264;52.088;5.296;2022-08-11T06:46:17;102255.0;;;20.52;61.7
64023;BME280;50264;52.088;5.296;2022-08-11T06:48:15;102257.0;;;20.56;60.74
64023;BME280;50264;52.088;5.296;2022-08-11T06:53:05;102264.0;;;20.69;60.86
64023;BME280;50264;52.088;5.296;2022-08-11T06:55:06;102256.0;;;20.75;60.12
64023;BME280;50264;52.088;5.296;2022-08-11T07:00:31;102251.0;;;21.0;59.92
64023;BME280;50264;52.088;5.296;2022-08-11T07:02:24;102249.0;;;21.27;56.43
64023;BME280;50264;52.088;5.296;2022-08-11T07:04:19;102249.0;;;21.32;58.11
64023;BME280;50264;52.088;5.296;2022-08-11T07:06:23;102255.0;;;21.39;58.41
64023;BME280;50264;52.088;5.296;2022-08-11T07:16:05;102251.0;;;21.88;55.21
64023;BME280;50264;52.088;5.296;2022-08-11T07:28:58;102256.0;;;22.37;51.64
64023;BME280;50264;52.088;5.296;2022-08-11T07:30:47;102260.0;;;22.54;52.3
64023;BME280;50264;52.088;5.296;2022-08-11T07:32:41;102263.0;;;22.72;53.81
64023;BME280;50264;52.088;5.296;2022-08-11T07:34:37;102256.0;;;22.78;51.61
64023;BME280;50264;52.088;5.296;2022-08-11T07:36:31;102259.0;;;22.96;50.6
64023;BME280;50264;52.088;5.296;2022-08-11T07:38:21;102261.0;;;22.94;49.79
64023;BME280;50264;52.088;5.296;2022-08-11T07:40:12;102255.0;;;23.02;51.03
64023;BME280;50264;52.088;5.296;2022-08-11T07:42:05;102255.0;;;23.14;50.14
64023;BME280;50264;52.088;5.296;2022-08-11T07:43:54;102253.0;;;23.18;49.99
64023;BME280;50264;52.088;5.296;2022-08-11T07:52:54;102251.0;;;23.45;49.42
64023;BME280;50264;52.088;5.296;2022-08-11T07:54:41;102250.0;;;23.68;49.0
64023;BME280;50264;52.088;5.296;2022-08-11T07:56:28;102249.0;;;23.72;48.59
64023;BME280;50264;52.088;5.296;2022-08-11T08:19:35;102251.0;;;24.48;45.36
64023;BME280;50264;52.088;5.296;2022-08-11T08:21:23;102246.0;;;24.41;45.81
64023;BME280;50264;52.088;5.296;2022-08-11T08:24:57;102251.0;;;24.61;44.78
64023;BME280;50264;52.088;5.296;2022-08-11T08:26:59;102246.0;;;24.7;44.38
64023;BME280;50264;52.088;5.296;2022-08-11T08:28:46;102248.0;;;24.85;44.17
64023;BME280;50264;52.088;5.296;2022-08-11T08:30:50;102249.0;;;24.98;44.79
64023;BME280;50264;52.088;5.296;2022-08-11T08:32:38;102246.0;;;25.1;44.18
64023;BME280;50264;52.088;5.296;2022-08-11T08:34:27;102240.0;;;25.2;44.25
64023;BME280;50264;52.088;5.296;2022-08-11T08:36:15;102245.0;;;25.29;44.22
64023;BME280;50264;52.088;5.296;2022-08-11T08:38:02;102244.0;;;25.32;43.94
64023;BME280;50264;52.088;5.296;2022-08-11T08:41:37;102242.0;;;25.41;44.4
64023;BME280;50264;52.088;5.296;2022-08-11T08:43:26;102243.0;;;25.53;43.78
64023;BME280;50264;52.088;5.296;2022-08-11T08:45:15;102236.0;;;25.63;42.72
64023;BME280;50264;52.088;5.296;2022-08-11T08:47:06;102237.0;;;25.74;42.19
64023;BME280;50264;52.088;5.296;2022-08-11T08:48:59;102235.0;;;25.85;43.78
64023;BME280;50264;52.088;5.296;2022-08-11T08:51:53;102234.0;;;25.97;43.18
64023;BME280;50264;52.088;5.296;2022-08-11T08:53:48;102234.0;;;26.05;41.31
64023;BME280;50264;52.088;5.296;2022-08-11T08:55:40;102230.0;;;26.14;40.64
64023;BME280;50264;52.088;5.296;2022-08-11T08:57:32;102228.0;;;26.32;40.79
64023;BME280;50264;52.088;5.296;2022-08-11T08:59:24;102226.0;;;26.4;40.12
64023;BME280;50264;52.088;5.296;2022-08-11T09:01:13;102230.0;;;26.58;40.19
64023;BME280;50264;52.088;5.296;2022-08-11T09:03:01;102230.0;;;26.7;39.82
64023;BME280;50264;52.088;5.296;2022-08-11T09:06:39;102235.0;;;26.75;39.0
64023;BME280;50264;52.088;5.296;2022-08-11T09:08:29;102230.0;;;26.94;38.56
64023;BME280;50264;52.088;5.296;2022-08-11T09:10:19;102230.0;;;27.12;38.24
64023;BME280;50264;52.088;5.296;2022-08-11T09:12:08;102228.0;;;27.19;37.74
64023;BME280;50264;52.088;5.296;2022-08-11T09:13:57;102224.0;;;27.39;37.06
64023;BME280;50264;52.088;5.296;2022-08-11T09:15:44;102228.0;;;27.58;38.61
64023;BME280;50264;52.088;5.296;2022-08-11T09:19:22;102230.0;;;27.74;37.99
64023;BME280;50264;52.088;5.296;2022-08-11T09:21:15;102231.0;;;27.95;36.69
64023;BME280;50264;52.088;5.296;2022-08-11T09:27:12;102218.0;;;28.29;37.4
64023;BME280;50264;52.088;5.296;2022-08-11T09:29:00;102224.0;;;28.32;37.0
64023;BME280;50264;52.088;5.296;2022-08-11T09:30:52;102219.0;;;28.45;34.99
64023;BME280;50264;52.088;5.296;2022-08-11T09:32:41;102215.0;;;28.65;34.28
64023;BME280;50264;52.088;5.296;2022-08-11T09:34:29;102212.0;;;28.75;32.58
64023;BME280;50264;52.088;5.296;2022-08-11T09:40:33;102207.0;;;29.03;33.1
64023;BME280;50264;52.088;5.296;2022-08-11T09:42:20;102201.0;;;29.24;32.87
64023;BME280;50264;52.088;5.296;2022-08-11T09:45:12;102200.0;;;29.38;33.05
64023;BME280;50264;52.088;5.296;2022-08-11T09:47:00;102199.0;;;29.55;32.51
64023;BME280;50264;52.088;5.296;2022-08-11T09:50:38;102199.0;;;29.63;30.52
64023;BME280;50264;52.088;5.296;2022-08-11T09:52:27;102199.0;;;29.74;30.75
64023;BME280;50264;52.088;5.296;2022-08-11T09:54:17;102195.0;;;29.91;29.17
64023;BME280;50264;52.088;5.296;2022-08-11T09:58:12;102194.0;;;29.95;29.65
64023;BME280;50264;52.088;5.296;2022-08-11T10:00:00;102192.0;;;30.19;31.1
64023;BME280;50264;52.088;5.296;2022-08-11T10:01:51;102193.0;;;30.29;31.27
64023;BME280;50264;52.088;5.296;2022-08-11T10:03:47;102196.0;;;30.51;30.83
64023;BME280;50264;52.088;5.296;2022-08-11T10:08:38;102198.0;;;30.72;29.3
64023;BME280;50264;52.088;5.296;2022-08-11T10:10:26;102198.0;;;30.77;28.84
64023;BME280;50264;52.088;5.296;2022-08-11T10:12:19;102196.0;;;30.77;28.99
64023;BME280;50264;52.088;5.296;2022-08-11T10:17:18;102194.0;;;31.03;27.32
64023;BME280;50264;52.088;5.296;2022-08-11T10:19:07;102193.0;;;31.13;28.73
64023;BME280;50264;52.088;5.296;2022-08-11T10:20:58;102189.0;;;31.23;26.9
64023;BME280;50264;52.088;5.296;2022-08-11T10:26:54;102180.0;;;31.43;26.68
64023;BME280;50264;52.088;5.296;2022-08-11T10:35:40;102169.0;;;31.6;26.05
64023;BME280;50264;52.088;5.296;2022-08-11T10:37:35;102175.0;;;31.75;27.13
64023;BME280;50264;52.088;5.296;2022-08-11T10:39:23;102174.0;;;31.88;26.42
64023;BME280;50264;52.088;5.296;2022-08-11T10:44:15;102175.0;;;32.1;25.7
64023;BME280;50264;52.088;5.296;2022-08-11T10:49:06;102164.0;;;32.29;25.12
64023;BME280;50264;52.088;5.296;2022-08-11T11:00:08;102150.0;;;32.89;24.3
64023;BME280;50264;52.088;5.296;2022-08-11T11:01:58;102156.0;;;32.81;24.07
64023;BME280;50264;52.088;5.296;2022-08-11T11:03:46;102155.0;;;32.92;24.19
64023;BME280;50264;52.088;5.296;2022-08-11T11:05:33;102146.0;;;33.07;25.14
64023;BME280;50264;52.088;5.296;2022-08-11T11:07:30;102143.0;;;33.03;23.27
64023;BME280;50264;52.088;5.296;2022-08-11T11:09:27;102135.0;;;33.15;23.48
64023;BME280;50264;52.088;5.296;2022-08-11T11:11:17;102134.0;;;33.14;23.08
64023;BME280;50264;52.088;5.296;2022-08-11T11:19:52;102137.0;;;33.58;23.73
64023;BME280;50264;52.088;5.296;2022-08-11T11:21:47;102134.0;;;33.76;23.16
64023;BME280;50264;52.088;5.296;2022-08-11T11:23:39;102133.0;;;33.68;22.19
64023;BME280;50264;52.088;5.296;2022-08-11T11:25:37;102135.0;;;33.72;22.54
64023;BME280;50264;52.088;5.296;2022-08-11T11:27:33;102136.0;;;33.81;22.64
64023;BME280;50264;52.088;5.296;2022-08-11T11:31:52;102130.0;;;33.64;21.72
64023;BME280;50264;52.088;5.296;2022-08-11T11:34:00;102132.0;;;33.89;22.7
64023;BME280;50264;52.088;5.296;2022-08-11T11:36:10;102125.0;;;33.93;21.92
64023;BME280;50264;52.088;5.296;2022-08-11T11:38:01;102130.0;;;34.14;22.44
64023;BME280;50264;52.088;5.296;2022-08-11T11:41:40;102125.0;;;34.24;21.97
64023;BME280;50264;52.088;5.296;2022-08-11T11:43:27;102124.0;;;34.6;23.45
64023;BME280;50264;52.088;5.296;2022-08-11T11:45:14;102122.0;;;34.57;20.51
64023;BME280;50264;52.088;5.296;2022-08-11T11:47:04;102130.0;;;34.42;20.21
64023;BME280;50264;52.088;5.296;2022-08-11T11:48:53;102125.0;;;34.21;20.61
64023;BME280;50264;52.088;5.296;2022-08-11T11:50:40;102120.0;;;34.17;20.69
64023;BME280;50264;52.088;5.296;2022-08-11T11:52:27;102118.0;;;34.28;20.62
64023;BME280;50264;52.088;5.296;2022-08-11T11:56:06;102117.0;;;34.49;20.25
64023;BME280;50264;52.088;5.296;2022-08-11T12:01:27;102118.0;;;35.01;20.79
64023;BME280;50264;52.088;5.296;2022-08-11T12:03:18;102115.0;;;34.93;21.37
64023;BME280;50264;52.088;5.296;2022-08-11T12:05:07;102101.0;;;35.03;19.81
64023;BME280;50264;52.088;5.296;2022-08-11T12:09:59;102100.0;;;34.97;19.68
64023;BME280;50264;52.088;5.296;2022-08-11T12:14:49;102094.0;;;34.99;18.98
64023;BME280;50264;52.088;5.296;2022-08-11T12:16:38;102097.0;;;35.12;19.82
64023;BME280;50264;52.088;5.296;2022-08-11T12:18:26;102097.0;;;35.25;18.27
64023;BME280;50264;52.088;5.296;2022-08-11T12:20:16;102088.0;;;35.29;17.91
64023;BME280;50264;52.088;5.296;2022-08-11T12:28:09;102083.0;;;35.64;18.45
64023;BME280;50264;52.088;5.296;2022-08-11T12:31:47;102084.0;;;35.72;18.66
64023;BME280;50264;52.088;5.296;2022-08-11T12:33:34;102072.0;;;36.03;19.2
64023;BME280;50264;52.088;5.296;2022-08-11T12:35:20;102065.0;;;36.0;19.18
64023;BME280;50264;52.088;5.296;2022-08-11T12:37:13;102068.0;;;36.01;19.64
64023;BME280;50264;52.088;5.296;2022-08-11T12:39:04;102063.0;;;36.03;19.04
64023;BME280;50264;52.088;5.296;2022-08-11T12:45:42;102063.0;;;36.39;19.11
64023;BME280;50264;52.088;5.296;2022-08-11T12:52:02;102046.0;;;36.44;19.54
64023;BME280;50264;52.088;5.296;2022-08-11T12:54:27;102050.0;;;36.31;18.34
64023;BME280;50264;52.088;5.296;2022-08-11T13:05:23;102049.0;;;36.49;18.61
64023;BME280;50264;52.088;5.296;2022-08-11T13:07:11;102043.0;;;36.49;18.36
64023;BME280;50264;52.088;5.296;2022-08-11T13:08:58;102039.0;;;36.71;17.73
64023;BME280;50264;52.088;5.296;2022-08-11T13:13:49;102037.0;;;36.79;18.88
64023;BME280;50264;52.088;5.296;2022-08-11T13:15:35;102033.0;;;36.35;18.53
64023;BME280;50264;52.088;5.296;2022-08-11T13:17:23;102034.0;;;36.37;18.84
64023;BME280;50264;52.088;5.296;2022-08-11T13:19:11;102033.0;;;36.68;18.43
64023;BME280;50264;52.088;5.296;2022-08-11T13:20:57;102033.0;;;36.71;18.43
64023;BME280;50264;52.088;5.296;2022-08-11T13:22:47;102024.0;;;36.72;18.2
64023;BME280;50264;52.088;5.296;2022-08-11T13:24:36;102022.0;;;36.54;18.16
64023;BME280;50264;52.088;5.296;2022-08-11T13:28:11;102028.0;;;36.71;18.75
64023;BME280;50264;52.088;5.296;2022-08-11T13:31:10;102024.0;;;36.81;17.66
64023;BME280;50264;52.088;5.296;2022-08-11T13:32:57;102019.0;;;36.47;18.16
64023;BME280;50264;52.088;5.296;2022-08-11T13:36:33;102013.0;;;36.03;18.64
64023;BME280;50264;52.088;5.296;2022-08-11T13:38:23;102012.0;;;36.26;18.27
64023;BME280;50264;52.088;5.296;2022-08-11T13:40:12;102006.0;;;36.54;18.84
64023;BME280;50264;52.088;5.296;2022-08-11T13:42:00;102005.0;;;36.6;18.86
64023;BME280;50264;52.088;5.296;2022-08-11T13:43:47;102009.0;;;36.72;18.56
64023;BME280;50264;52.088;5.296;2022-08-11T13:45:36;102007.0;;;36.96;19.11
64023;BME280;50264;52.088;5.296;2022-08-11T13:49:14;102005.0;;;37.15;18.57
64023;BME280;50264;52.088;5.296;2022-08-11T13:51:35;102009.0;;;37.21;18.25
64023;BME280;50264;52.088;5.296;2022-08-11T13:53:26;102005.0;;;37.06;17.68
64023;BME280;50264;52.088;5.296;2022-08-11T13:55:21;101995.0;;;37.08;18.21
64023;BME280;50264;52.088;5.296;2022-08-11T13:57:08;101996.0;;;37.04;18.48
64023;BME280;50264;52.088;5.296;2022-08-11T13:59:00;101995.0;;;36.78;18.82
64023;BME280;50264;52.088;5.296;2022-08-11T14:00:49;101998.0;;;36.92;18.77
64023;BME280;50264;52.088;5.296;2022-08-11T14:02:40;102000.0;;;36.78;18.12
64023;BME280;50264;52.088;5.296;2022-08-11T14:04:30;102005.0;;;37.01;20.18
64023;BME280;50264;52.088;5.296;2022-08-11T14:08:33;101996.0;;;36.74;18.28
64023;BME280;50264;52.088;5.296;2022-08-11T14:15:21;101983.0;;;37.18;18.5
64023;BME280;50264;52.088;5.296;2022-08-11T14:17:09;101977.0;;;37.29;17.34
64023;BME280;50264;52.088;5.296;2022-08-11T14:19:00;101975.0;;;37.35;16.55
64023;BME280;50264;52.088;5.296;2022-08-11T14:23:54;101981.0;;;37.56;16.86
64023;BME280;50264;52.088;5.296;2022-08-11T14:26:22;101975.0;;;37.4;17.95
64023;BME280;50264;52.088;5.296;2022-08-11T14:28:09;101971.0;;;37.37;18.18
64023;BME280;50264;52.088;5.296;2022-08-11T14:29:57;101976.0;;;37.51;18.05
64023;BME280;50264;52.088;5.296;2022-08-11T14:31:46;101970.0;;;37.25;17.27
64023;BME280;50264;52.088;5.296;2022-08-11T14:33:36;101976.0;;;37.17;17.7
64023;BME280;50264;52.088;5.296;2022-08-11T14:37:13;101972.0;;;37.28;17.04
64023;BME280;50264;52.088;5.296;2022-08-11T14:39:06;101974.0;;;37.35;17.84
64023;BME280;50264;52.088;5.296;2022-08-11T14:47:40;101957.0;;;36.86;18.02
64023;BME280;50264;52.088;5.296;2022-08-11T14:49:28;101952.0;;;37.01;17.27
64023;BME280;50264;52.088;5.296;2022-08-11T14:51:15;101955.0;;;37.03;16.7
64023;BME280;50264;52.088;5.296;2022-08-11T14:53:07;101955.0;;;36.9;18.11
64023;BME280;50264;52.088;5.296;2022-08-11T14:58:38;101957.0;;;37.1;16.75
64023;BME280;50264;52.088;5.296;2022-08-11T15:00:28;101955.0;;;36.68;16.86
64023;BME280;50264;52.088;5.296;2022-08-11T15:03:21;101943.0;;;36.6;16.86
64023;BME280;50264;52.088;5.296;2022-08-11T15:05:09;101947.0;;;36.42;16.96
64023;BME280;50264;52.088;5.296;2022-08-11T15:08:59;101945.0;;;36.26;16.79
64023;BME280;50264;52.088;5.296;2022-08-11T15:10:48;101945.0;;;36.56;17.81
64023;BME280;50264;52.088;5.296;2022-08-11T15:12:36;101939.0;;;36.49;17.66
64023;BME280;50264;52.088;5.296;2022-08-11T15:18:12;101940.0;;;36.31;17.75
64023;BME280;50264;52.088;5.296;2022-08-11T15:24:24;101934.0;;;35.99;17.09
64023;BME280;50264;52.088;5.296;2022-08-11T15:26:12;101932.0;;;35.83;17.53
64023;BME280;50264;52.088;5.296;2022-08-11T15:38:40;101924.0;;;35.24;19.18
64023;BME280;50264;52.088;5.296;2022-08-11T15:46:38;101922.0;;;35.1;20.34
64023;BME280;50264;52.088;5.296;2022-08-11T15:48:39;101914.0;;;35.06;19.66
64023;BME280;50264;52.088;5.296;2022-08-11T15:50:31;101914.0;;;34.68;20.85